Latest Weather Observations for Hay Point

IDQ60801

Issued at 9:32 am EST Tuesday 7 December 2021 (issued every 10 minutes, with the page automatically refreshed every 10 minutes)

About weather observations | Map of weather stations | Latest weather observations for QLD | Other Formats
Station Details ID: 033317 Name: HAY POINT Lat: -21.29 Lon: 149.30 Height: 7.0 m
Data from the previous 72 hours. | See also: Recent months for locations in Queensland
Date/Time
EST
Temp
°C
App
Temp
°C
Dew
Point
°C
Rel
Hum
%
Delta-T
°C
Wind Press
QNH
hPa
Press
MSL
hPa
Rain since
9am
mm
Dir  Spd
km/h
Gust
km/h
Spd
kts
Gust
kts
07/09:30am - - - - - SE 20 28 11 15 - - -
07/09:00am - - - - - SE 20 28 11 15 - - -
07/08:30am - - - - - SE 24 33 13 18 - - -
07/08:00am - - - - - ESE 26 32 14 17 - - -
07/07:30am - - - - - SE 24 35 13 19 - - -
07/07:00am - - - - - ESE 28 35 15 19 - - -
07/06:30am - - - - - SE 24 35 13 19 - - -
07/06:00am - - - - - SE 26 35 14 19 - - -
07/05:30am - - - - - SE 26 33 14 18 - - -
07/05:00am - - - - - SE 28 33 15 18 - - -
07/04:30am - - - - - ESE 32 37 17 20 - - -
07/04:00am - - - - - ESE 32 43 17 23 - - -
07/03:30am - - - - - E 32 35 17 19 - - -
07/03:00am - - - - - E 28 35 15 19 - - -
07/02:30am - - - - - ESE 28 32 15 17 - - -
07/02:00am - - - - - ESE 30 33 16 18 - - -
07/01:30am - - - - - ESE 30 35 16 19 - - -
07/01:00am - - - - - ESE 28 33 15 18 - - -
07/12:30am - - - - - ESE 30 35 16 19 - - -
07/12:00am - - - - - ESE 30 35 16 19 - - -
 
Date/Time
EST
Temp
°C
App
Temp
°C
Dew
Point
°C
Rel
Hum
%
Delta-T
°C
Wind Press
QNH
hPa
Press
MSL
hPa
Rain since
9am
mm
Dir  Spd
km/h
Gust
km/h
Spd
kts
Gust
kts
06/11:30pm - - - - - ESE 32 37 17 20 - - -
06/11:00pm - - - - - ESE 30 35 16 19 - - -
06/10:30pm - - - - - ESE 28 33 15 18 - - -
06/10:00pm - - - - - ESE 30 37 16 20 - - -
06/09:30pm - - - - - ESE 28 33 15 18 - - -
06/09:00pm - - - - - E 32 35 17 19 - - -
06/08:30pm - - - - - E 30 33 16 18 - - -
06/08:00pm - - - - - ESE 32 37 17 20 - - -
06/07:30pm - - - - - E 32 37 17 20 - - -
06/07:00pm - - - - - E 30 35 16 19 - - -
06/06:30pm - - - - - E 30 35 16 19 - - -
06/06:00pm - - - - - E 28 32 15 17 - - -
06/05:30pm - - - - - E 26 30 14 16 - - -
06/05:00pm - - - - - ESE 24 30 13 16 - - -
06/04:30pm - - - - - ESE 26 30 14 16 - - -
06/04:00pm - - - - - ESE 22 30 12 16 - - -
06/03:30pm - - - - - SE 24 32 13 17 - - -
06/03:00pm - - - - - SE 26 35 14 19 - - -
06/02:30pm - - - - - SE 26 33 14 18 - - -
06/02:00pm - - - - - SE 24 30 13 16 - - -
06/01:30pm - - - - - SE 26 30 14 16 - - -
06/01:00pm - - - - - SE 26 32 14 17 - - -
06/12:30pm - - - - - SE 24 30 13 16 - - -
06/12:00pm - - - - - SE 20 26 11 14 - - -
06/11:30am - - - - - SE 24 28 13 15 - - -
06/11:00am - - - - - SE 24 32 13 17 - - -
06/10:30am - - - - - SE 24 32 13 17 - - -
06/10:00am - - - - - SE 24 30 13 16 - - -
06/09:30am - - - - - ESE 24 30 13 16 - - -
06/09:00am - - - - - ESE 26 32 14 17 - - -
06/08:30am - - - - - ESE 26 32 14 17 - - -
06/08:00am - - - - - ESE 26 33 14 18 - - -
06/07:30am - - - - - ESE 26 30 14 16 - - -
06/07:00am - - - - - ESE 26 30 14 16 - - -
06/06:30am - - - - - ESE 24 30 13 16 - - -
06/06:00am - - - - - ESE 26 32 14 17 - - -
06/05:30am - - - - - ESE 26 32 14 17 - - -
06/05:00am - - - - - E 28 33 15 18 - - -
06/04:30am - - - - - ESE 28 32 15 17 - - -
06/04:00am - - - - - ESE 28 33 15 18 - - -
06/03:30am - - - - - E 26 32 14 17 - - -
06/03:00am - - - - - E 30 35 16 19 - - -
06/02:30am - - - - - E 32 39 17 21 - - -
06/02:00am - - - - - ESE 33 41 18 22 - - -
06/01:30am - - - - - E 30 37 16 20 - - -
06/01:00am - - - - - E 30 33 16 18 - - -
06/12:30am - - - - - ESE 32 35 17 19 - - -
06/12:00am - - - - - ESE 32 35 17 19 - - -
 
Date/Time
EST
Temp
°C
App
Temp
°C
Dew
Point
°C
Rel
Hum
%
Delta-T
°C
Wind Press
QNH
hPa
Press
MSL
hPa
Rain since
9am
mm
Dir  Spd
km/h
Gust
km/h
Spd
kts
Gust
kts
05/11:30pm - - - - - ESE 33 39 18 21 - - -
05/11:00pm - - - - - E 30 35 16 19 - - -
05/10:30pm - - - - - ESE 33 41 18 22 - - -
05/10:00pm - - - - - ESE 32 37 17 20 - - -
05/09:30pm - - - - - ESE 30 37 16 20 - - -
05/09:00pm - - - - - ESE 32 39 17 21 - - -
05/08:30pm - - - - - ESE 33 39 18 21 - - -
05/08:00pm - - - - - E 32 37 17 20 - - -
05/07:30pm - - - - - E 33 41 18 22 - - -
05/07:00pm - - - - - E 33 39 18 21 - - -
05/06:30pm - - - - - E 30 37 16 20 - - -
05/06:00pm - - - - - ESE 28 32 15 17 - - -
05/05:30pm - - - - - ESE 24 32 13 17 - - -
05/05:00pm - - - - - ESE 32 35 17 19 - - -
05/04:30pm - - - - - ESE 28 35 15 19 - - -
05/04:00pm - - - - - ESE 24 32 13 17 - - -
05/03:30pm - - - - - ESE 24 30 13 16 - - -
05/03:00pm - - - - - ESE 24 30 13 16 - - -
05/02:30pm - - - - - ESE 22 26 12 14 - - -
05/02:00pm - - - - - ESE 19 24 10 13 - - -
05/01:30pm - - - - - SE 17 20 9 11 - - -
05/01:00pm - - - - - SE 20 26 11 14 - - -
05/12:30pm - - - - - ESE 24 30 13 16 - - -
05/12:00pm - - - - - SE 22 28 12 15 - - -
05/11:30am - - - - - SE 26 30 14 16 - - -
05/11:00am - - - - - SE 28 32 15 17 - - -
05/10:30am - - - - - SE 24 33 13 18 - - -
05/10:00am - - - - - SE 28 37 15 20 - - -
05/09:30am - - - - - ESE 32 35 17 19 - - -
05/09:00am - - - - - SE 24 35 13 19 - - -
05/08:30am - - - - - SE 24 32 13 17 - - -
05/08:00am - - - - - SE 24 33 13 18 - - -
05/07:30am - - - - - SSE 20 30 11 16 - - -
05/07:00am - - - - - S 13 17 7 9 - - -
05/06:30am - - - - - SSW 15 17 8 9 - - -
05/06:00am - - - - - SSW 13 17 7 9 - - -
05/05:30am - - - - - SSW 13 17 7 9 - - -
05/05:00am - - - - - SSW 13 15 7 8 - - -
05/04:30am - - - - - SSW 13 15 7 8 - - -
05/04:00am - - - - - SSW 9 11 5 6 - - -
05/03:30am - - - - - S 9 11 5 6 - - -
05/03:00am - - - - - SW 9 11 5 6 - - -
05/02:30am - - - - - SSW 9 13 5 7 - - -
05/02:00am - - - - - E 11 15 6 8 - - -
05/01:30am - - - - - E 15 19 8 10 - - -
05/01:00am - - - - - E 15 19 8 10 - - -
05/12:30am - - - - - ESE 13 15 7 8 - - -
05/12:00am - - - - - ESE 13 15 7 8 - - -
 
Date/Time
EST
Temp
°C
App
Temp
°C
Dew
Point
°C
Rel
Hum
%
Delta-T
°C
Wind Press
QNH
hPa
Press
MSL
hPa
Rain since
9am
mm
Dir  Spd
km/h
Gust
km/h
Spd
kts
Gust
kts
04/11:30pm - - - - - ESE 9 13 5 7 - - -
04/11:00pm - - - - - ESE 11 15 6 8 - - -
04/10:30pm - - - - - ENE 13 15 7 8 - - -
04/10:00pm - - - - - E 13 17 7 9 - - -
04/09:30pm - - - - - E 17 20 9 11 - - -
04/09:00pm - - - - - ENE 15 17 8 9 - - -
04/08:30pm - - - - - E 15 19 8 10 - - -
04/08:00pm - - - - - E 17 20 9 11 - - -
04/07:30pm - - - - - E 19 22 10 12 - - -
04/07:00pm - - - - - E 20 24 11 13 - - -
04/06:30pm - - - - - E 20 26 11 14 - - -
04/06:00pm - - - - - E 24 28 13 15 - - -
04/05:30pm - - - - - ENE 24 28 13 15 - - -
04/05:00pm - - - - - E 26 28 14 15 - - -
04/04:30pm - - - - - E 24 26 13 14 - - -
04/04:00pm - - - - - E 24 28 13 15 - - -
04/03:30pm - - - - - E 20 26 11 14 - - -
04/03:00pm - - - - - E 22 26 12 14 - - -
04/02:30pm - - - - - E 22 24 12 13 - - -
04/02:00pm - - - - - ESE 22 28 12 15 - - -
04/01:30pm - - - - - ESE 26 28 14 15 - - -
04/01:00pm - - - - - ESE 24 28 13 15 - - -
04/12:30pm - - - - - ESE 24 28 13 15 - - -
04/12:00pm - - - - - SE 28 33 15 18 - - -
04/11:30am - - - - - SE 26 30 14 16 - - -
04/11:00am - - - - - SE 24 30 13 16 - - -
04/10:30am - - - - - SSE 28 33 15 18 - - -
04/10:00am - - - - - SE 26 32 14 17 - - -

Other formats

Comma delimited format used in spreadsheet applications
http://www.bom.gov.au/fwo/IDQ60801/IDQ60801.99367.axf

JavaScript Object Notation format (JSON) in row-major order
http://www.bom.gov.au/fwo/IDQ60801/IDQ60801.99367.json

Data quality

Most of these data are generated automatically and are frequently updated. Quality checks on data are not normally performed. It is possible for incorrect values to appear. Refer to information at About Latest Weather Observations and please check the disclaimer before using these data.